sensor_id;sensor_type;location;lat;lon;timestamp;P1;durP1;ratioP1;P2;durP2;ratioP2
49784;SDS011;35679;38.732;-121.358;2022-10-18T00:00:21;8.77;;;6.30;;
49784;SDS011;35679;38.732;-121.358;2022-10-18T00:03:10;10.55;;;6.47;;
49784;SDS011;35679;38.732;-121.358;2022-10-18T00:06:00;11.55;;;6.55;;
49784;SDS011;35679;38.732;-121.358;2022-10-18T00:08:50;13.25;;;6.32;;
49784;SDS011;35679;38.732;-121.358;2022-10-18T00:11:39;9.38;;;6.25;;
49784;SDS011;35679;38.732;-121.358;2022-10-18T00:14:29;9.02;;;6.00;;
49784;SDS011;35679;38.732;-121.358;2022-10-18T00:17:18;9.10;;;6.32;;
49784;SDS011;35679;38.732;-121.358;2022-10-18T00:20:08;10.48;;;6.03;;
49784;SDS011;35679;38.732;-121.358;2022-10-18T00:22:58;8.38;;;6.13;;
49784;SDS011;35679;38.732;-121.358;2022-10-18T00:25:47;8.98;;;6.82;;
49784;SDS011;35679;38.732;-121.358;2022-10-18T00:28:37;8.65;;;6.07;;
49784;SDS011;35679;38.732;-121.358;2022-10-18T00:31:34;8.88;;;6.05;;
49784;SDS011;35679;38.732;-121.358;2022-10-18T00:34:24;8.23;;;5.55;;
49784;SDS011;35679;38.732;-121.358;2022-10-18T00:37:14;8.88;;;5.82;;
49784;SDS011;35679;38.732;-121.358;2022-10-18T00:40:03;11.27;;;6.75;;
49784;SDS011;35679;38.732;-121.358;2022-10-18T00:42:53;9.57;;;6.10;;
49784;SDS011;35679;38.732;-121.358;2022-10-18T00:45:42;8.25;;;6.22;;
49784;SDS011;35679;38.732;-121.358;2022-10-18T00:48:32;10.40;;;5.95;;
49784;SDS011;35679;38.732;-121.358;2022-10-18T00:51:21;12.07;;;6.70;;
49784;SDS011;35679;38.732;-121.358;2022-10-18T00:54:16;9.40;;;5.95;;
49784;SDS011;35679;38.732;-121.358;2022-10-18T00:57:08;14.82;;;6.25;;
49784;SDS011;35679;38.732;-121.358;2022-10-18T00:59:59;9.07;;;5.85;;
49784;SDS011;35679;38.732;-121.358;2022-10-18T01:02:51;9.27;;;5.75;;
49784;SDS011;35679;38.732;-121.358;2022-10-18T01:05:42;10.77;;;6.00;;
49784;SDS011;35679;38.732;-121.358;2022-10-18T01:11:46;9.88;;;6.13;;
49784;SDS011;35679;38.732;-121.358;2022-10-18T01:21:17;9.57;;;6.22;;
49784;SDS011;35679;38.732;-121.358;2022-10-18T01:24:36;10.15;;;6.50;;
49784;SDS011;35679;38.732;-121.358;2022-10-18T01:27:47;7.60;;;6.03;;
49784;SDS011;35679;38.732;-121.358;2022-10-18T01:33:50;10.85;;;6.30;;
49784;SDS011;35679;38.732;-121.358;2022-10-18T01:36:46;8.27;;;6.03;;
49784;SDS011;35679;38.732;-121.358;2022-10-18T01:39:39;8.07;;;5.88;;
49784;SDS011;35679;38.732;-121.358;2022-10-18T01:42:31;9.35;;;6.30;;
49784;SDS011;35679;38.732;-121.358;2022-10-18T01:45:21;6.80;;;5.82;;
49784;SDS011;35679;38.732;-121.358;2022-10-18T01:48:12;7.90;;;6.43;;
49784;SDS011;35679;38.732;-121.358;2022-10-18T01:51:03;8.05;;;5.40;;
49784;SDS011;35679;38.732;-121.358;2022-10-18T01:53:52;11.07;;;5.90;;
49784;SDS011;35679;38.732;-121.358;2022-10-18T01:56:46;9.40;;;6.60;;
49784;SDS011;35679;38.732;-121.358;2022-10-18T02:03:00;7.57;;;6.05;;
49784;SDS011;35679;38.732;-121.358;2022-10-18T02:05:58;9.18;;;5.90;;
49784;SDS011;35679;38.732;-121.358;2022-10-18T02:08:59;8.82;;;6.45;;
49784;SDS011;35679;38.732;-121.358;2022-10-18T02:12:00;7.40;;;5.97;;
49784;SDS011;35679;38.732;-121.358;2022-10-18T02:14:52;7.67;;;6.30;;
49784;SDS011;35679;38.732;-121.358;2022-10-18T02:17:41;9.52;;;6.05;;
49784;SDS011;35679;38.732;-121.358;2022-10-18T02:20:34;7.95;;;6.18;;
49784;SDS011;35679;38.732;-121.358;2022-10-18T02:23:26;8.85;;;6.35;;
49784;SDS011;35679;38.732;-121.358;2022-10-18T02:26:15;7.22;;;6.13;;
49784;SDS011;35679;38.732;-121.358;2022-10-18T02:29:05;7.32;;;5.68;;
49784;SDS011;35679;38.732;-121.358;2022-10-18T02:31:59;8.70;;;6.20;;
49784;SDS011;35679;38.732;-121.358;2022-10-18T02:38:07;7.82;;;5.68;;
49784;SDS011;35679;38.732;-121.358;2022-10-18T02:40:58;9.23;;;5.72;;
49784;SDS011;35679;38.732;-121.358;2022-10-18T02:43:48;7.93;;;6.05;;
49784;SDS011;35679;38.732;-121.358;2022-10-18T02:46:38;6.70;;;5.53;;
49784;SDS011;35679;38.732;-121.358;2022-10-18T02:49:29;7.68;;;5.80;;
49784;SDS011;35679;38.732;-121.358;2022-10-18T02:52:18;6.90;;;6.22;;
49784;SDS011;35679;38.732;-121.358;2022-10-18T02:55:08;9.43;;;6.13;;
49784;SDS011;35679;38.732;-121.358;2022-10-18T02:57:58;7.53;;;6.05;;
49784;SDS011;35679;38.732;-121.358;2022-10-18T03:00:50;9.80;;;6.30;;
49784;SDS011;35679;38.732;-121.358;2022-10-18T03:03:40;7.32;;;5.53;;
49784;SDS011;35679;38.732;-121.358;2022-10-18T03:06:30;9.05;;;6.05;;
49784;SDS011;35679;38.732;-121.358;2022-10-18T03:09:20;7.05;;;5.75;;
49784;SDS011;35679;38.732;-121.358;2022-10-18T03:12:10;6.70;;;5.68;;
49784;SDS011;35679;38.732;-121.358;2022-10-18T03:14:59;7.07;;;5.63;;
49784;SDS011;35679;38.732;-121.358;2022-10-18T03:17:48;7.00;;;5.50;;
49784;SDS011;35679;38.732;-121.358;2022-10-18T03:20:39;7.05;;;5.50;;
49784;SDS011;35679;38.732;-121.358;2022-10-18T03:23:28;6.57;;;5.50;;
49784;SDS011;35679;38.732;-121.358;2022-10-18T03:26:18;7.72;;;5.80;;
49784;SDS011;35679;38.732;-121.358;2022-10-18T03:29:09;6.47;;;5.88;;
49784;SDS011;35679;38.732;-121.358;2022-10-18T03:31:58;8.75;;;6.00;;
49784;SDS011;35679;38.732;-121.358;2022-10-18T03:34:48;6.47;;;5.45;;
49784;SDS011;35679;38.732;-121.358;2022-10-18T03:37:37;9.95;;;5.95;;
49784;SDS011;35679;38.732;-121.358;2022-10-18T03:40:27;9.40;;;5.82;;
49784;SDS011;35679;38.732;-121.358;2022-10-18T03:43:16;8.18;;;5.97;;
49784;SDS011;35679;38.732;-121.358;2022-10-18T03:46:06;8.45;;;6.07;;
49784;SDS011;35679;38.732;-121.358;2022-10-18T03:48:57;7.15;;;5.65;;
49784;SDS011;35679;38.732;-121.358;2022-10-18T03:51:46;6.72;;;5.85;;
49784;SDS011;35679;38.732;-121.358;2022-10-18T03:54:35;8.10;;;5.63;;
49784;SDS011;35679;38.732;-121.358;2022-10-18T03:57:25;12.52;;;5.68;;
49784;SDS011;35679;38.732;-121.358;2022-10-18T04:00:15;8.45;;;6.05;;
49784;SDS011;35679;38.732;-121.358;2022-10-18T04:03:04;11.93;;;5.95;;
49784;SDS011;35679;38.732;-121.358;2022-10-18T04:05:54;8.63;;;5.82;;
49784;SDS011;35679;38.732;-121.358;2022-10-18T04:08:44;7.47;;;5.78;;
49784;SDS011;35679;38.732;-121.358;2022-10-18T04:11:33;7.05;;;5.95;;
49784;SDS011;35679;38.732;-121.358;2022-10-18T04:14:23;10.40;;;6.13;;
49784;SDS011;35679;38.732;-121.358;2022-10-18T04:17:12;6.47;;;5.75;;
49784;SDS011;35679;38.732;-121.358;2022-10-18T04:20:02;7.10;;;5.38;;
49784;SDS011;35679;38.732;-121.358;2022-10-18T04:22:51;9.05;;;6.32;;
49784;SDS011;35679;38.732;-121.358;2022-10-18T04:25:42;7.53;;;6.03;;
49784;SDS011;35679;38.732;-121.358;2022-10-18T04:28:32;6.90;;;5.72;;
49784;SDS011;35679;38.732;-121.358;2022-10-18T04:31:22;9.77;;;6.25;;
49784;SDS011;35679;38.732;-121.358;2022-10-18T04:34:12;7.80;;;6.28;;
49784;SDS011;35679;38.732;-121.358;2022-10-18T04:37:01;7.85;;;6.07;;
49784;SDS011;35679;38.732;-121.358;2022-10-18T04:39:50;8.65;;;6.15;;
49784;SDS011;35679;38.732;-121.358;2022-10-18T04:42:40;7.55;;;5.88;;
49784;SDS011;35679;38.732;-121.358;2022-10-18T04:45:30;7.30;;;5.25;;
49784;SDS011;35679;38.732;-121.358;2022-10-18T04:48:19;7.97;;;5.60;;
49784;SDS011;35679;38.732;-121.358;2022-10-18T04:51:09;7.65;;;6.35;;
49784;SDS011;35679;38.732;-121.358;2022-10-18T04:53:58;7.00;;;6.00;;
49784;SDS011;35679;38.732;-121.358;2022-10-18T04:56:48;8.15;;;5.80;;
49784;SDS011;35679;38.732;-121.358;2022-10-18T04:59:37;8.63;;;6.10;;
49784;SDS011;35679;38.732;-121.358;2022-10-18T05:02:27;7.47;;;5.85;;
49784;SDS011;35679;38.732;-121.358;2022-10-18T05:05:17;7.57;;;5.80;;
49784;SDS011;35679;38.732;-121.358;2022-10-18T05:08:06;6.88;;;5.93;;
49784;SDS011;35679;38.732;-121.358;2022-10-18T05:10:55;6.60;;;5.60;;
49784;SDS011;35679;38.732;-121.358;2022-10-18T05:13:45;7.55;;;5.95;;
49784;SDS011;35679;38.732;-121.358;2022-10-18T05:16:37;8.35;;;6.03;;
49784;SDS011;35679;38.732;-121.358;2022-10-18T05:19:27;8.02;;;5.80;;
49784;SDS011;35679;38.732;-121.358;2022-10-18T05:22:16;9.73;;;6.00;;
49784;SDS011;35679;38.732;-121.358;2022-10-18T05:25:05;8.55;;;6.25;;
49784;SDS011;35679;38.732;-121.358;2022-10-18T05:27:56;6.47;;;5.55;;
49784;SDS011;35679;38.732;-121.358;2022-10-18T05:30:49;9.52;;;5.78;;
49784;SDS011;35679;38.732;-121.358;2022-10-18T05:33:38;7.88;;;5.93;;
49784;SDS011;35679;38.732;-121.358;2022-10-18T05:36:30;8.18;;;6.13;;
49784;SDS011;35679;38.732;-121.358;2022-10-18T05:39:19;9.32;;;6.13;;
49784;SDS011;35679;38.732;-121.358;2022-10-18T05:42:09;8.18;;;6.35;;
49784;SDS011;35679;38.732;-121.358;2022-10-18T05:44:59;7.63;;;5.72;;
49784;SDS011;35679;38.732;-121.358;2022-10-18T05:47:48;9.55;;;6.03;;
49784;SDS011;35679;38.732;-121.358;2022-10-18T05:50:37;9.07;;;6.05;;
49784;SDS011;35679;38.732;-121.358;2022-10-18T05:53:27;9.65;;;6.68;;
49784;SDS011;35679;38.732;-121.358;2022-10-18T05:56:24;8.70;;;6.55;;
49784;SDS011;35679;38.732;-121.358;2022-10-18T05:59:14;8.52;;;6.10;;
49784;SDS011;35679;38.732;-121.358;2022-10-18T06:02:03;8.65;;;6.07;;
49784;SDS011;35679;38.732;-121.358;2022-10-18T06:04:53;7.70;;;5.88;;
49784;SDS011;35679;38.732;-121.358;2022-10-18T06:07:42;7.85;;;5.95;;
49784;SDS011;35679;38.732;-121.358;2022-10-18T06:10:31;9.25;;;5.60;;
49784;SDS011;35679;38.732;-121.358;2022-10-18T06:13:21;10.02;;;6.00;;
49784;SDS011;35679;38.732;-121.358;2022-10-18T06:16:11;9.02;;;5.85;;
49784;SDS011;35679;38.732;-121.358;2022-10-18T06:19:01;7.25;;;5.80;;
49784;SDS011;35679;38.732;-121.358;2022-10-18T06:21:50;8.07;;;5.82;;
49784;SDS011;35679;38.732;-121.358;2022-10-18T06:24:40;8.73;;;5.65;;
49784;SDS011;35679;38.732;-121.358;2022-10-18T06:27:32;7.88;;;5.55;;
49784;SDS011;35679;38.732;-121.358;2022-10-18T06:30:22;8.00;;;6.20;;
49784;SDS011;35679;38.732;-121.358;2022-10-18T06:33:11;8.68;;;5.70;;
49784;SDS011;35679;38.732;-121.358;2022-10-18T06:36:02;8.45;;;5.75;;
49784;SDS011;35679;38.732;-121.358;2022-10-18T06:38:53;8.15;;;6.50;;
49784;SDS011;35679;38.732;-121.358;2022-10-18T06:41:44;8.90;;;6.18;;
49784;SDS011;35679;38.732;-121.358;2022-10-18T06:44:38;7.07;;;6.03;;
49784;SDS011;35679;38.732;-121.358;2022-10-18T06:47:28;7.60;;;5.75;;
49784;SDS011;35679;38.732;-121.358;2022-10-18T06:50:17;8.38;;;6.45;;
49784;SDS011;35679;38.732;-121.358;2022-10-18T06:53:08;11.00;;;6.55;;
49784;SDS011;35679;38.732;-121.358;2022-10-18T06:55:58;7.07;;;5.97;;
49784;SDS011;35679;38.732;-121.358;2022-10-18T06:58:52;8.98;;;5.82;;
49784;SDS011;35679;38.732;-121.358;2022-10-18T07:01:41;9.85;;;6.43;;
49784;SDS011;35679;38.732;-121.358;2022-10-18T07:04:31;7.80;;;6.55;;
49784;SDS011;35679;38.732;-121.358;2022-10-18T07:07:21;10.23;;;6.55;;
49784;SDS011;35679;38.732;-121.358;2022-10-18T07:10:10;8.10;;;5.82;;
49784;SDS011;35679;38.732;-121.358;2022-10-18T07:12:59;10.85;;;6.45;;
49784;SDS011;35679;38.732;-121.358;2022-10-18T07:16:13;8.93;;;6.60;;
49784;SDS011;35679;38.732;-121.358;2022-10-18T07:19:05;7.38;;;5.95;;
49784;SDS011;35679;38.732;-121.358;2022-10-18T07:21:54;10.98;;;6.70;;
49784;SDS011;35679;38.732;-121.358;2022-10-18T07:24:43;7.70;;;6.10;;
49784;SDS011;35679;38.732;-121.358;2022-10-18T07:27:36;8.15;;;6.35;;
49784;SDS011;35679;38.732;-121.358;2022-10-18T07:30:27;8.18;;;6.35;;
49784;SDS011;35679;38.732;-121.358;2022-10-18T07:33:16;8.38;;;6.32;;
49784;SDS011;35679;38.732;-121.358;2022-10-18T07:36:08;8.35;;;6.60;;
49784;SDS011;35679;38.732;-121.358;2022-10-18T07:38:58;8.75;;;6.53;;
49784;SDS011;35679;38.732;-121.358;2022-10-18T07:41:47;12.57;;;7.05;;
49784;SDS011;35679;38.732;-121.358;2022-10-18T07:44:37;7.18;;;6.28;;
49784;SDS011;35679;38.732;-121.358;2022-10-18T07:47:27;7.75;;;5.93;;
49784;SDS011;35679;38.732;-121.358;2022-10-18T07:50:21;8.07;;;6.78;;
49784;SDS011;35679;38.732;-121.358;2022-10-18T07:56:06;8.25;;;6.18;;
49784;SDS011;35679;38.732;-121.358;2022-10-18T07:59:03;8.68;;;6.60;;
49784;SDS011;35679;38.732;-121.358;2022-10-18T08:01:52;9.02;;;6.65;;
49784;SDS011;35679;38.732;-121.358;2022-10-18T08:04:42;9.10;;;6.47;;
49784;SDS011;35679;38.732;-121.358;2022-10-18T08:07:32;9.98;;;6.38;;
49784;SDS011;35679;38.732;-121.358;2022-10-18T08:10:21;7.85;;;6.10;;
49784;SDS011;35679;38.732;-121.358;2022-10-18T08:13:14;7.95;;;6.90;;
49784;SDS011;35679;38.732;-121.358;2022-10-18T08:16:04;8.43;;;6.57;;
49784;SDS011;35679;38.732;-121.358;2022-10-18T08:18:56;9.05;;;7.00;;
49784;SDS011;35679;38.732;-121.358;2022-10-18T08:21:46;9.90;;;6.22;;
49784;SDS011;35679;38.732;-121.358;2022-10-18T08:24:35;8.82;;;6.50;;
49784;SDS011;35679;38.732;-121.358;2022-10-18T08:27:25;8.32;;;6.57;;
49784;SDS011;35679;38.732;-121.358;2022-10-18T08:30:14;10.88;;;6.53;;
49784;SDS011;35679;38.732;-121.358;2022-10-18T08:33:04;7.90;;;6.40;;
49784;SDS011;35679;38.732;-121.358;2022-10-18T08:35:54;9.57;;;6.32;;
49784;SDS011;35679;38.732;-121.358;2022-10-18T08:38:46;9.82;;;6.28;;
49784;SDS011;35679;38.732;-121.358;2022-10-18T08:44:26;8.85;;;6.50;;
49784;SDS011;35679;38.732;-121.358;2022-10-18T08:47:30;9.20;;;6.82;;
49784;SDS011;35679;38.732;-121.358;2022-10-18T08:50:28;10.85;;;7.10;;
49784;SDS011;35679;38.732;-121.358;2022-10-18T08:53:23;8.95;;;6.50;;
49784;SDS011;35679;38.732;-121.358;2022-10-18T08:56:51;8.40;;;6.40;;
49784;SDS011;35679;38.732;-121.358;2022-10-18T08:59:49;8.68;;;6.20;;
49784;SDS011;35679;38.732;-121.358;2022-10-18T09:09:20;8.20;;;6.78;;
49784;SDS011;35679;38.732;-121.358;2022-10-18T09:12:33;10.38;;;7.15;;
49784;SDS011;35679;38.732;-121.358;2022-10-18T09:15:43;10.18;;;6.72;;
49784;SDS011;35679;38.732;-121.358;2022-10-18T09:18:44;10.75;;;6.80;;
49784;SDS011;35679;38.732;-121.358;2022-10-18T09:25:03;7.35;;;6.47;;
49784;SDS011;35679;38.732;-121.358;2022-10-18T09:37:35;8.85;;;6.30;;
49784;SDS011;35679;38.732;-121.358;2022-10-18T09:40:25;9.30;;;6.90;;
49784;SDS011;35679;38.732;-121.358;2022-10-18T09:43:20;9.07;;;7.28;;
49784;SDS011;35679;38.732;-121.358;2022-10-18T09:46:12;9.00;;;5.95;;
49784;SDS011;35679;38.732;-121.358;2022-10-18T09:49:04;7.05;;;6.20;;
49784;SDS011;35679;38.732;-121.358;2022-10-18T09:52:03;9.85;;;6.43;;
49784;SDS011;35679;38.732;-121.358;2022-10-18T09:54:57;8.68;;;6.55;;
49784;SDS011;35679;38.732;-121.358;2022-10-18T09:57:55;9.00;;;6.72;;
49784;SDS011;35679;38.732;-121.358;2022-10-18T10:00:48;9.48;;;6.70;;
49784;SDS011;35679;38.732;-121.358;2022-10-18T10:03:41;9.63;;;6.88;;
49784;SDS011;35679;38.732;-121.358;2022-10-18T10:06:30;10.55;;;6.93;;
49784;SDS011;35679;38.732;-121.358;2022-10-18T10:12:45;9.00;;;7.00;;
49784;SDS011;35679;38.732;-121.358;2022-10-18T10:15:36;9.15;;;7.28;;
49784;SDS011;35679;38.732;-121.358;2022-10-18T10:18:37;9.20;;;7.18;;
49784;SDS011;35679;38.732;-121.358;2022-10-18T10:21:27;11.68;;;7.15;;
49784;SDS011;35679;38.732;-121.358;2022-10-18T10:24:21;7.75;;;6.72;;
49784;SDS011;35679;38.732;-121.358;2022-10-18T10:27:38;9.45;;;7.32;;
49784;SDS011;35679;38.732;-121.358;2022-10-18T10:30:32;9.27;;;6.90;;
49784;SDS011;35679;38.732;-121.358;2022-10-18T10:33:41;7.83;;;6.50;;
49784;SDS011;35679;38.732;-121.358;2022-10-18T10:36:34;9.52;;;7.70;;
49784;SDS011;35679;38.732;-121.358;2022-10-18T10:39:42;10.50;;;7.28;;
49784;SDS011;35679;38.732;-121.358;2022-10-18T10:46:11;9.85;;;6.78;;
49784;SDS011;35679;38.732;-121.358;2022-10-18T10:49:03;9.65;;;7.60;;
49784;SDS011;35679;38.732;-121.358;2022-10-18T10:52:19;9.73;;;7.13;;
49784;SDS011;35679;38.732;-121.358;2022-10-18T10:55:25;8.60;;;6.93;;
49784;SDS011;35679;38.732;-121.358;2022-10-18T10:58:22;7.90;;;6.93;;
49784;SDS011;35679;38.732;-121.358;2022-10-18T11:01:31;8.30;;;7.15;;
49784;SDS011;35679;38.732;-121.358;2022-10-18T11:04:25;9.82;;;7.50;;
49784;SDS011;35679;38.732;-121.358;2022-10-18T11:10:16;9.93;;;6.70;;
49784;SDS011;35679;38.732;-121.358;2022-10-18T11:13:23;12.77;;;7.85;;
49784;SDS011;35679;38.732;-121.358;2022-10-18T11:16:32;9.18;;;6.90;;
49784;SDS011;35679;38.732;-121.358;2022-10-18T11:19:43;11.27;;;6.90;;
49784;SDS011;35679;38.732;-121.358;2022-10-18T11:35:10;8.65;;;7.20;;
49784;SDS011;35679;38.732;-121.358;2022-10-18T11:38:28;9.38;;;6.97;;
49784;SDS011;35679;38.732;-121.358;2022-10-18T11:41:30;10.57;;;7.00;;
49784;SDS011;35679;38.732;-121.358;2022-10-18T11:44:23;9.77;;;7.10;;
49784;SDS011;35679;38.732;-121.358;2022-10-18T11:53:44;9.48;;;6.90;;
49784;SDS011;35679;38.732;-121.358;2022-10-18T11:56:42;7.93;;;6.30;;
49784;SDS011;35679;38.732;-121.358;2022-10-18T11:59:45;10.77;;;7.35;;
49784;SDS011;35679;38.732;-121.358;2022-10-18T12:05:28;9.85;;;6.70;;
49784;SDS011;35679;38.732;-121.358;2022-10-18T12:11:23;7.30;;;6.35;;
49784;SDS011;35679;38.732;-121.358;2022-10-18T12:14:29;9.38;;;6.93;;
49784;SDS011;35679;38.732;-121.358;2022-10-18T12:20:35;11.68;;;10.48;;
49784;SDS011;35679;38.732;-121.358;2022-10-18T12:23:38;14.13;;;12.88;;
49784;SDS011;35679;38.732;-121.358;2022-10-18T12:26:34;15.68;;;14.27;;
49784;SDS011;35679;38.732;-121.358;2022-10-18T12:32:21;9.73;;;6.50;;
49784;SDS011;35679;38.732;-121.358;2022-10-18T12:35:15;9.52;;;7.05;;
49784;SDS011;35679;38.732;-121.358;2022-10-18T12:38:22;11.02;;;9.40;;
49784;SDS011;35679;38.732;-121.358;2022-10-18T12:41:24;10.63;;;7.70;;
49784;SDS011;35679;38.732;-121.358;2022-10-18T12:47:22;11.70;;;7.50;;
49784;SDS011;35679;38.732;-121.358;2022-10-18T12:53:18;8.70;;;7.90;;
49784;SDS011;35679;38.732;-121.358;2022-10-18T13:02:24;9.55;;;7.50;;
49784;SDS011;35679;38.732;-121.358;2022-10-18T13:05:47;8.38;;;6.90;;
49784;SDS011;35679;38.732;-121.358;2022-10-18T13:08:42;10.02;;;7.70;;
49784;SDS011;35679;38.732;-121.358;2022-10-18T13:11:33;9.63;;;7.38;;
49784;SDS011;35679;38.732;-121.358;2022-10-18T13:17:27;8.70;;;7.25;;
49784;SDS011;35679;38.732;-121.358;2022-10-18T13:20:27;11.68;;;7.45;;
49784;SDS011;35679;38.732;-121.358;2022-10-18T13:36:18;11.77;;;7.13;;
49784;SDS011;35679;38.732;-121.358;2022-10-18T13:39:17;10.60;;;6.93;;
49784;SDS011;35679;38.732;-121.358;2022-10-18T14:07:14;8.93;;;6.78;;
49784;SDS011;35679;38.732;-121.358;2022-10-18T14:12:57;9.05;;;6.85;;
49784;SDS011;35679;38.732;-121.358;2022-10-18T14:15:53;8.52;;;7.18;;
49784;SDS011;35679;38.732;-121.358;2022-10-18T14:18:46;8.57;;;7.05;;
49784;SDS011;35679;38.732;-121.358;2022-10-18T14:21:42;8.55;;;6.88;;
49784;SDS011;35679;38.732;-121.358;2022-10-18T14:24:39;10.60;;;7.57;;
49784;SDS011;35679;38.732;-121.358;2022-10-18T14:27:32;8.38;;;7.40;;
49784;SDS011;35679;38.732;-121.358;2022-10-18T14:30:22;8.30;;;6.45;;
49784;SDS011;35679;38.732;-121.358;2022-10-18T14:33:22;10.50;;;7.70;;
49784;SDS011;35679;38.732;-121.358;2022-10-18T14:36:13;10.48;;;7.45;;
49784;SDS011;35679;38.732;-121.358;2022-10-18T14:39:06;10.10;;;7.38;;
49784;SDS011;35679;38.732;-121.358;2022-10-18T14:42:17;11.43;;;7.47;;
49784;SDS011;35679;38.732;-121.358;2022-10-18T14:45:16;9.90;;;7.32;;
49784;SDS011;35679;38.732;-121.358;2022-10-18T14:48:19;9.68;;;7.13;;
49784;SDS011;35679;38.732;-121.358;2022-10-18T14:51:10;8.38;;;6.80;;
49784;SDS011;35679;38.732;-121.358;2022-10-18T14:54:02;10.13;;;7.13;;
49784;SDS011;35679;38.732;-121.358;2022-10-18T14:56:53;10.93;;;7.53;;
49784;SDS011;35679;38.732;-121.358;2022-10-18T14:59:46;10.55;;;7.30;;
49784;SDS011;35679;38.732;-121.358;2022-10-18T15:02:42;10.27;;;7.03;;
49784;SDS011;35679;38.732;-121.358;2022-10-18T15:05:32;8.25;;;6.78;;
49784;SDS011;35679;38.732;-121.358;2022-10-18T15:08:22;10.30;;;7.60;;
49784;SDS011;35679;38.732;-121.358;2022-10-18T15:11:14;9.90;;;7.03;;
49784;SDS011;35679;38.732;-121.358;2022-10-18T15:14:04;8.60;;;7.00;;
49784;SDS011;35679;38.732;-121.358;2022-10-18T15:17:02;10.07;;;7.22;;
49784;SDS011;35679;38.732;-121.358;2022-10-18T15:19:57;8.50;;;7.15;;
49784;SDS011;35679;38.732;-121.358;2022-10-18T15:22:52;9.68;;;7.47;;
49784;SDS011;35679;38.732;-121.358;2022-10-18T15:26:06;8.90;;;6.70;;
49784;SDS011;35679;38.732;-121.358;2022-10-18T15:28:58;10.90;;;7.10;;
49784;SDS011;35679;38.732;-121.358;2022-10-18T15:31:53;8.52;;;6.70;;
49784;SDS011;35679;38.732;-121.358;2022-10-18T15:34:42;11.18;;;7.65;;
49784;SDS011;35679;38.732;-121.358;2022-10-18T15:37:40;12.23;;;8.15;;
49784;SDS011;35679;38.732;-121.358;2022-10-18T15:40:33;8.98;;;6.88;;
49784;SDS011;35679;38.732;-121.358;2022-10-18T15:46:29;9.07;;;7.40;;
49784;SDS011;35679;38.732;-121.358;2022-10-18T16:01:16;7.78;;;6.55;;
49784;SDS011;35679;38.732;-121.358;2022-10-18T16:04:09;13.25;;;7.72;;
49784;SDS011;35679;38.732;-121.358;2022-10-18T16:09:59;8.95;;;7.03;;
49784;SDS011;35679;38.732;-121.358;2022-10-18T16:12:49;11.35;;;7.53;;
49784;SDS011;35679;38.732;-121.358;2022-10-18T16:15:38;9.90;;;7.07;;
49784;SDS011;35679;38.732;-121.358;2022-10-18T16:18:29;11.25;;;7.70;;
49784;SDS011;35679;38.732;-121.358;2022-10-18T16:21:22;10.52;;;7.47;;
49784;SDS011;35679;38.732;-121.358;2022-10-18T16:24:16;10.30;;;7.18;;
49784;SDS011;35679;38.732;-121.358;2022-10-18T16:27:06;10.60;;;7.50;;
49784;SDS011;35679;38.732;-121.358;2022-10-18T16:29:57;8.48;;;7.00;;
49784;SDS011;35679;38.732;-121.358;2022-10-18T16:32:46;8.80;;;6.75;;
49784;SDS011;35679;38.732;-121.358;2022-10-18T16:35:36;10.07;;;7.45;;
49784;SDS011;35679;38.732;-121.358;2022-10-18T16:38:27;10.07;;;6.88;;
49784;SDS011;35679;38.732;-121.358;2022-10-18T16:41:21;9.52;;;7.28;;
49784;SDS011;35679;38.732;-121.358;2022-10-18T16:44:11;10.10;;;7.22;;
49784;SDS011;35679;38.732;-121.358;2022-10-18T16:47:01;10.30;;;7.50;;
49784;SDS011;35679;38.732;-121.358;2022-10-18T16:49:50;10.75;;;7.15;;
49784;SDS011;35679;38.732;-121.358;2022-10-18T16:52:40;9.32;;;7.10;;
49784;SDS011;35679;38.732;-121.358;2022-10-18T16:55:29;10.90;;;6.95;;
49784;SDS011;35679;38.732;-121.358;2022-10-18T16:58:19;10.48;;;7.20;;
49784;SDS011;35679;38.732;-121.358;2022-10-18T17:01:30;10.82;;;7.55;;
49784;SDS011;35679;38.732;-121.358;2022-10-18T17:04:20;10.65;;;6.95;;
49784;SDS011;35679;38.732;-121.358;2022-10-18T17:07:10;9.93;;;6.97;;
49784;SDS011;35679;38.732;-121.358;2022-10-18T17:10:11;8.35;;;7.07;;
49784;SDS011;35679;38.732;-121.358;2022-10-18T17:13:02;8.48;;;7.45;;
49784;SDS011;35679;38.732;-121.358;2022-10-18T17:15:51;9.35;;;7.47;;
49784;SDS011;35679;38.732;-121.358;2022-10-18T17:18:41;8.95;;;7.20;;
49784;SDS011;35679;38.732;-121.358;2022-10-18T17:21:30;10.82;;;7.65;;
49784;SDS011;35679;38.732;-121.358;2022-10-18T17:24:23;10.68;;;6.97;;
49784;SDS011;35679;38.732;-121.358;2022-10-18T17:27:12;9.15;;;6.72;;
49784;SDS011;35679;38.732;-121.358;2022-10-18T17:30:02;10.13;;;7.15;;
49784;SDS011;35679;38.732;-121.358;2022-10-18T17:32:52;8.48;;;7.40;;
49784;SDS011;35679;38.732;-121.358;2022-10-18T17:35:41;9.88;;;7.22;;
49784;SDS011;35679;38.732;-121.358;2022-10-18T17:38:32;8.98;;;7.28;;
49784;SDS011;35679;38.732;-121.358;2022-10-18T17:41:23;9.55;;;7.10;;
49784;SDS011;35679;38.732;-121.358;2022-10-18T17:44:12;9.88;;;6.80;;
49784;SDS011;35679;38.732;-121.358;2022-10-18T17:47:01;9.85;;;7.07;;
49784;SDS011;35679;38.732;-121.358;2022-10-18T17:49:51;12.23;;;7.05;;
49784;SDS011;35679;38.732;-121.358;2022-10-18T17:52:41;9.93;;;7.03;;
49784;SDS011;35679;38.732;-121.358;2022-10-18T17:55:32;7.70;;;6.72;;
49784;SDS011;35679;38.732;-121.358;2022-10-18T17:58:22;14.32;;;7.00;;
49784;SDS011;35679;38.732;-121.358;2022-10-18T18:01:13;9.27;;;7.03;;
49784;SDS011;35679;38.732;-121.358;2022-10-18T18:04:04;7.68;;;6.60;;
49784;SDS011;35679;38.732;-121.358;2022-10-18T18:06:53;9.63;;;7.10;;
49784;SDS011;35679;38.732;-121.358;2022-10-18T18:09:44;7.32;;;6.38;;
49784;SDS011;35679;38.732;-121.358;2022-10-18T18:12:33;9.80;;;6.53;;
49784;SDS011;35679;38.732;-121.358;2022-10-18T18:15:23;8.63;;;6.57;;
49784;SDS011;35679;38.732;-121.358;2022-10-18T18:18:12;10.35;;;6.53;;
49784;SDS011;35679;38.732;-121.358;2022-10-18T18:21:02;9.40;;;6.63;;
49784;SDS011;35679;38.732;-121.358;2022-10-18T18:23:52;9.68;;;6.63;;
49784;SDS011;35679;38.732;-121.358;2022-10-18T18:26:42;11.35;;;6.90;;
49784;SDS011;35679;38.732;-121.358;2022-10-18T18:29:31;8.18;;;6.35;;
49784;SDS011;35679;38.732;-121.358;2022-10-18T18:32:21;8.60;;;6.32;;
49784;SDS011;35679;38.732;-121.358;2022-10-18T18:35:10;8.57;;;6.43;;
49784;SDS011;35679;38.732;-121.358;2022-10-18T18:38:00;7.63;;;6.45;;
49784;SDS011;35679;38.732;-121.358;2022-10-18T18:41:10;9.98;;;6.82;;
49784;SDS011;35679;38.732;-121.358;2022-10-18T18:44:02;10.13;;;6.65;;
49784;SDS011;35679;38.732;-121.358;2022-10-18T18:46:53;8.63;;;6.50;;
49784;SDS011;35679;38.732;-121.358;2022-10-18T18:49:42;9.57;;;7.03;;
49784;SDS011;35679;38.732;-121.358;2022-10-18T18:52:32;8.52;;;6.47;;
49784;SDS011;35679;38.732;-121.358;2022-10-18T18:55:22;9.27;;;6.63;;
49784;SDS011;35679;38.732;-121.358;2022-10-18T18:58:11;9.15;;;7.10;;
49784;SDS011;35679;38.732;-121.358;2022-10-18T19:01:07;9.88;;;6.57;;
49784;SDS011;35679;38.732;-121.358;2022-10-18T19:04:06;11.05;;;6.70;;
49784;SDS011;35679;38.732;-121.358;2022-10-18T19:06:57;9.18;;;7.10;;
49784;SDS011;35679;38.732;-121.358;2022-10-18T19:09:47;10.10;;;7.32;;
49784;SDS011;35679;38.732;-121.358;2022-10-18T19:12:38;9.48;;;6.53;;